Time;durP1;ratioP1;P1;durP2;ratioP2;P2;SDS_P1;SDS_P2;PMS_P1;PMS_P2;Temp;Humidity;BMP_temperature;BMP_pressure;BME280_temperature;BME280_humidity;BME280_pressure;Samples;Min_cycle;Max_cycle;Signal;HPM_P1;HPM_P2
2021/06/08 00:01:01;;;;;;;13.13;11.07;;;;;;;;;;3608310;39;20512;-76
2021/06/08 00:03:27;;;;;;;14.60;10.30;;;;;;;;;;3597965;39;20415;-75
2021/06/08 00:05:54;;;;;;;11.57;10.50;;;;;;;;;;3609655;39;20452;-75
2021/06/08 00:08:20;;;;;;;13.43;12.00;;;;;;;;;;3621989;39;20394;-75
2021/06/08 00:10:46;;;;;;;13.10;11.67;;;;;;;;;;3622768;39;20819;-75
2021/06/08 00:13:12;;;;;;;12.90;11.60;;;;;;;;;;3622552;39;20447;-75
2021/06/08 00:15:38;;;;;;;11.50;10.50;;;;;;;;;;3620665;39;20417;-75
2021/06/08 00:18:04;;;;;;;11.10;10.20;;;;;;;;;;3608536;39;20424;-75
2021/06/08 00:20:30;;;;;;;11.50;10.10;;;;;;;;;;3620848;39;20404;-75
2021/06/08 00:22:56;;;;;;;12.00;10.83;;;;;;;;;;3610803;39;20420;-75
2021/06/08 00:25:22;;;;;;;13.93;12.63;;;;;;;;;;3608412;39;20531;-75
2021/06/08 00:27:48;;;;;;;12.50;11.30;;;;;;;;;;3620861;39;20440;-75
2021/06/08 00:30:14;;;;;;;13.60;12.20;;;;;;;;;;3611875;39;20456;-75
2021/06/08 00:32:40;;;;;;;14.77;12.27;;;;;;;;;;3621913;39;20432;-75
2021/06/08 00:35:07;;;;;;;13.30;12.00;;;;;;;;;;3610124;39;20432;-75
2021/06/08 00:37:33;;;;;;;11.57;10.40;;;;;;;;;;3610268;39;20452;-75
2021/06/08 00:39:59;;;;;;;12.40;11.20;;;;;;;;;;3623215;39;20409;-75
2021/06/08 00:42:29;;;;;;;14.97;13.37;;;;;;;;;;3623347;39;20416;-75
2021/06/08 00:44:55;;;;;;;12.93;11.70;;;;;;;;;;3605132;39;20559;-75
2021/06/08 00:47:21;;;;;;;12.70;11.60;;;;;;;;;;3619507;39;20450;-75
2021/06/08 00:49:47;;;;;;;14.00;12.40;;;;;;;;;;3622435;39;20432;-75
2021/06/08 00:52:13;;;;;;;13.33;11.00;;;;;;;;;;3622349;39;20432;-75
2021/06/08 00:54:39;;;;;;;14.80;12.33;;;;;;;;;;3610707;39;20412;-75
2021/06/08 00:57:05;;;;;;;15.23;11.80;;;;;;;;;;3623223;39;20385;-76
2021/06/08 00:59:31;;;;;;;11.97;10.80;;;;;;;;;;3624124;39;20401;-75
2021/06/08 01:01:57;;;;;;;14.93;13.47;;;;;;;;;;3621079;39;20449;-75
2021/06/08 01:04:24;;;;;;;12.93;11.67;;;;;;;;;;3610093;39;20436;-75
2021/06/08 01:06:50;;;;;;;12.03;10.93;;;;;;;;;;3621927;39;20409;-75
2021/06/08 01:09:16;;;;;;;12.17;11.00;;;;;;;;;;3622179;39;20695;-75
2021/06/08 01:11:42;;;;;;;14.73;13.13;;;;;;;;;;3623004;39;20764;-75
2021/06/08 01:14:08;;;;;;;13.57;12.27;;;;;;;;;;3610498;39;20882;-75
2021/06/08 01:16:34;;;;;;;17.73;13.33;;;;;;;;;;3610545;39;20415;-75
2021/06/08 01:19:00;;;;;;;14.67;13.40;;;;;;;;;;3610712;39;20707;-75
2021/06/08 01:21:28;;;;;;;13.70;12.33;;;;;;;;;;3610051;39;20494;-75
2021/06/08 01:23:54;;;;;;;18.70;14.77;;;;;;;;;;3622495;39;20514;-75
2021/06/08 01:26:23;;;;;;;16.70;15.00;;;;;;;;;;3623258;39;20394;-75
2021/06/08 01:28:49;;;;;;;15.80;13.67;;;;;;;;;;3622822;39;20390;-75
2021/06/08 01:31:17;;;;;;;13.93;12.50;;;;;;;;;;3613337;39;20444;-75
2021/06/08 01:33:44;;;;;;;16.33;14.47;;;;;;;;;;3611290;39;20447;-75
2021/06/08 01:36:15;;;;;;;16.80;12.87;;;;;;;;;;3622586;39;20390;-75
2021/06/08 01:38:42;;;;;;;13.43;12.13;;;;;;;;;;3607176;39;20444;-75
2021/06/08 01:41:10;;;;;;;15.57;14.03;;;;;;;;;;3615817;39;21284;-75
2021/06/08 01:43:36;;;;;;;13.40;12.20;;;;;;;;;;3607856;39;20409;-75
2021/06/08 01:46:02;;;;;;;15.43;13.93;;;;;;;;;;3622433;39;20811;-75
2021/06/08 01:48:28;;;;;;;14.93;13.30;;;;;;;;;;3610616;39;20469;-75
2021/06/08 01:50:57;;;;;;;15.37;13.87;;;;;;;;;;3593004;39;20436;-75
2021/06/08 01:53:29;;;;;;;15.90;13.53;;;;;;;;;;3618795;39;20493;-75
2021/06/08 01:56:00;;;;;;;13.93;12.27;;;;;;;;;;3611948;39;20539;-75
2021/06/08 01:58:32;;;;;;;15.17;13.67;;;;;;;;;;3622725;39;20468;-75
2021/06/08 02:01:01;;;;;;;14.30;12.33;;;;;;;;;;3610507;39;20449;-75
2021/06/08 02:03:38;;;;;;;15.47;13.97;;;;;;;;;;3621291;39;20405;-75
2021/06/08 02:06:21;;;;;;;14.73;13.13;;;;;;;;;;3608412;39;20655;-75
2021/06/08 02:08:51;;;;;;;14.30;12.80;;;;;;;;;;3622100;39;20432;-75
2021/06/08 02:11:23;;;;;;;14.27;12.80;;;;;;;;;;3610970;39;20417;-75
2021/06/08 02:14:03;;;;;;;15.83;14.00;;;;;;;;;;3622691;39;20425;-75
2021/06/08 02:16:51;;;;;;;15.73;14.13;;;;;;;;;;3612030;39;20393;-75
2021/06/08 02:19:19;;;;;;;15.27;13.77;;;;;;;;;;3610384;39;20406;-75
2021/06/08 02:21:47;;;;;;;14.53;13.10;;;;;;;;;;3623656;39;20440;-75
2021/06/08 02:24:17;;;;;;;16.20;13.60;;;;;;;;;;3612998;39;20424;-75
2021/06/08 02:26:43;;;;;;;15.00;12.70;;;;;;;;;;3623127;39;20653;-75
2021/06/08 02:29:09;;;;;;;14.80;13.30;;;;;;;;;;3622342;39;20409;-75
2021/06/08 02:31:36;;;;;;;15.77;13.40;;;;;;;;;;3609542;39;20424;-75
2021/06/08 02:34:03;;;;;;;15.70;14.20;;;;;;;;;;3611060;39;20430;-75
2021/06/08 02:36:29;;;;;;;13.50;12.23;;;;;;;;;;3622415;39;20446;-75
2021/06/08 02:38:58;;;;;;;14.33;13.00;;;;;;;;;;3611278;39;20433;-74
2021/06/08 02:41:25;;;;;;;13.53;12.23;;;;;;;;;;3609849;39;20475;-75
2021/06/08 02:43:52;;;;;;;14.00;12.57;;;;;;;;;;3620866;39;20452;-75
2021/06/08 02:46:19;;;;;;;15.07;12.53;;;;;;;;;;3612751;39;20389;-75
2021/06/08 02:48:46;;;;;;;14.00;12.63;;;;;;;;;;3613218;39;20401;-75
2021/06/08 02:51:13;;;;;;;14.03;12.33;;;;;;;;;;3621449;39;20424;-75
2021/06/08 02:53:39;;;;;;;16.90;15.40;;;;;;;;;;3612505;39;20457;-75
2021/06/08 02:56:06;;;;;;;15.80;14.30;;;;;;;;;;3609682;39;20444;-74
2021/06/08 02:58:33;;;;;;;15.03;13.53;;;;;;;;;;3621877;39;20409;-74
2021/06/08 03:01:00;;;;;;;13.37;12.03;;;;;;;;;;3602936;39;20424;-74
2021/06/08 03:03:35;;;;;;;13.53;12.23;;;;;;;;;;3623367;39;20407;-74
2021/06/08 03:06:04;;;;;;;20.93;14.20;;;;;;;;;;3609182;39;20449;-74
2021/06/08 03:08:33;;;;;;;13.77;12.37;;;;;;;;;;3618819;39;20517;-74
2021/06/08 03:11:03;;;;;;;15.20;13.67;;;;;;;;;;3612598;39;20399;-74
2021/06/08 03:13:30;;;;;;;19.83;13.13;;;;;;;;;;3612503;39;20417;-74
2021/06/08 03:15:58;;;;;;;16.10;14.43;;;;;;;;;;3612108;39;20398;-74
2021/06/08 03:18:29;;;;;;;15.13;13.53;;;;;;;;;;3619419;39;20414;-73
2021/06/08 03:20:57;;;;;;;15.43;13.20;;;;;;;;;;3615150;39;20437;-74
2021/06/08 03:23:37;;;;;;;14.93;12.67;;;;;;;;;;3610978;39;20429;-74
2021/06/08 03:26:03;;;;;;;17.03;12.87;;;;;;;;;;3612371;39;20895;-74
2021/06/08 03:28:30;;;;;;;18.60;14.43;;;;;;;;;;3617367;39;20424;-74
2021/06/08 03:30:57;;;;;;;19.13;15.43;;;;;;;;;;3614488;39;20410;-74
2021/06/08 03:33:25;;;;;;;14.57;13.10;;;;;;;;;;3608718;39;21113;-74
2021/06/08 03:35:52;;;;;;;14.70;13.17;;;;;;;;;;3611191;39;20402;-73
2021/06/08 03:38:18;;;;;;;14.80;12.33;;;;;;;;;;3615996;39;20505;-74
2021/06/08 03:40:45;;;;;;;20.53;14.10;;;;;;;;;;3599330;39;20752;-74
2021/06/08 03:43:12;;;;;;;15.03;13.60;;;;;;;;;;3605953;39;20432;-74
2021/06/08 03:45:39;;;;;;;13.03;11.73;;;;;;;;;;3610632;39;20855;-74
2021/06/08 03:48:06;;;;;;;15.03;13.43;;;;;;;;;;3598276;39;20414;-74
2021/06/08 03:50:32;;;;;;;16.03;14.33;;;;;;;;;;3612579;39;20620;-74
2021/06/08 03:53:01;;;;;;;16.53;14.83;;;;;;;;;;3609586;39;20408;-74
2021/06/08 03:55:27;;;;;;;16.73;15.03;;;;;;;;;;3611915;39;20397;-73
2021/06/08 03:57:55;;;;;;;15.87;13.80;;;;;;;;;;3617739;39;20402;-74
2021/06/08 04:00:22;;;;;;;14.77;13.37;;;;;;;;;;3619197;39;20398;-74
2021/06/08 04:02:49;;;;;;;15.20;13.70;;;;;;;;;;3609297;39;20841;-74
2021/06/08 04:05:15;;;;;;;17.67;15.87;;;;;;;;;;3614393;39;20418;-73
2021/06/08 04:07:42;;;;;;;15.00;13.20;;;;;;;;;;3612646;39;20393;-74
2021/06/08 04:10:09;;;;;;;13.93;12.53;;;;;;;;;;3611310;39;21046;-74
2021/06/08 04:12:36;;;;;;;13.37;11.97;;;;;;;;;;3609167;39;20420;-74
2021/06/08 04:15:04;;;;;;;15.43;12.83;;;;;;;;;;3612350;39;20378;-74
2021/06/08 04:17:31;;;;;;;14.40;13.10;;;;;;;;;;3611801;39;20523;-74
2021/06/08 04:19:57;;;;;;;14.30;12.80;;;;;;;;;;3612393;39;20397;-74
2021/06/08 04:22:30;;;;;;;18.43;13.00;;;;;;;;;;3611227;39;20410;-74
2021/06/08 04:24:57;;;;;;;15.50;14.00;;;;;;;;;;3614223;39;20984;-74
2021/06/08 04:27:27;;;;;;;14.63;12.23;;;;;;;;;;3605481;39;20429;-74
2021/06/08 04:29:54;;;;;;;14.17;12.77;;;;;;;;;;3611282;39;20762;-74
2021/06/08 04:32:20;;;;;;;12.30;11.10;;;;;;;;;;3610558;39;20483;-73
2021/06/08 04:34:47;;;;;;;12.47;11.30;;;;;;;;;;3605975;39;21023;-73
2021/06/08 04:37:13;;;;;;;13.37;12.07;;;;;;;;;;3619025;39;20404;-74
2021/06/08 04:39:40;;;;;;;15.00;13.50;;;;;;;;;;3614237;39;20409;-74
2021/06/08 04:42:07;;;;;;;12.53;11.37;;;;;;;;;;3610235;39;20950;-74
2021/06/08 04:44:34;;;;;;;13.50;12.20;;;;;;;;;;3611433;39;20398;-74
2021/06/08 04:47:00;;;;;;;12.57;11.37;;;;;;;;;;3600312;39;20406;-74
2021/06/08 04:49:26;;;;;;;12.93;11.63;;;;;;;;;;3615298;39;20426;-74
2021/06/08 04:51:52;;;;;;;13.93;12.60;;;;;;;;;;3608083;39;20453;-74
2021/06/08 04:54:25;;;;;;;15.40;12.87;;;;;;;;;;3592807;39;20413;-74
2021/06/08 04:56:51;;;;;;;14.90;13.30;;;;;;;;;;3610590;39;20404;-74
2021/06/08 04:59:21;;;;;;;14.10;12.60;;;;;;;;;;3612057;39;20425;-74
2021/06/08 05:01:47;;;;;;;14.07;12.60;;;;;;;;;;3611063;39;20813;-74
2021/06/08 05:04:15;;;;;;;14.30;13.00;;;;;;;;;;3611824;39;20433;-74
2021/06/08 05:06:43;;;;;;;15.57;12.73;;;;;;;;;;3618512;39;20440;-74
2021/06/08 05:09:18;;;;;;;14.90;13.37;;;;;;;;;;3621779;39;20413;-74
2021/06/08 05:11:47;;;;;;;16.13;14.53;;;;;;;;;;3621938;39;20812;-73
2021/06/08 05:14:14;;;;;;;15.20;13.47;;;;;;;;;;3622912;39;20385;-73
2021/06/08 05:16:41;;;;;;;16.27;14.53;;;;;;;;;;3613777;39;20409;-74
2021/06/08 05:19:09;;;;;;;15.63;14.10;;;;;;;;;;3622505;39;20828;-76
2021/06/08 05:21:36;;;;;;;18.20;14.80;;;;;;;;;;3611023;39;20899;-73
2021/06/08 05:24:04;;;;;;;14.70;13.13;;;;;;;;;;3609635;39;20393;-72
2021/06/08 05:26:30;;;;;;;16.90;15.20;;;;;;;;;;3611577;39;20421;-72
2021/06/08 05:28:57;;;;;;;21.40;15.70;;;;;;;;;;3609128;39;20407;-72
2021/06/08 05:31:23;;;;;;;18.97;15.90;;;;;;;;;;3608330;39;20501;-72
2021/06/08 05:33:49;;;;;;;18.70;16.07;;;;;;;;;;3610119;39;20448;-72
2021/06/08 05:36:15;;;;;;;18.93;16.73;;;;;;;;;;3611527;39;20425;-72
2021/06/08 05:38:43;;;;;;;20.70;16.70;;;;;;;;;;3620445;39;20451;-73
2021/06/08 05:41:10;;;;;;;19.17;16.20;;;;;;;;;;3611663;39;20417;-75
2021/06/08 05:43:37;;;;;;;21.23;16.00;;;;;;;;;;3622013;39;20427;-74
2021/06/08 05:46:03;;;;;;;19.67;17.70;;;;;;;;;;3610943;39;21207;-73
2021/06/08 05:48:30;;;;;;;19.60;17.70;;;;;;;;;;3620310;39;20412;-74
2021/06/08 05:50:56;;;;;;;20.10;18.13;;;;;;;;;;3610440;39;20563;-74
2021/06/08 05:53:23;;;;;;;24.30;16.40;;;;;;;;;;3611614;39;20467;-74
2021/06/08 05:55:49;;;;;;;23.57;17.90;;;;;;;;;;3613672;39;20409;-74
2021/06/08 05:58:16;;;;;;;18.80;16.70;;;;;;;;;;3617542;39;20542;-74
2021/06/08 06:00:43;;;;;;;20.07;18.10;;;;;;;;;;3609164;39;22970;-74
2021/06/08 06:03:09;;;;;;;22.00;16.23;;;;;;;;;;3617826;39;20385;-74
2021/06/08 06:05:40;;;;;;;23.00;19.43;;;;;;;;;;3607486;39;20414;-74
2021/06/08 06:08:06;;;;;;;22.17;18.30;;;;;;;;;;3617738;39;20421;-74
2021/06/08 06:10:32;;;;;;;20.03;18.07;;;;;;;;;;3607941;39;20405;-74
2021/06/08 06:13:00;;;;;;;24.73;17.83;;;;;;;;;;3620129;39;21083;-74
2021/06/08 06:15:27;;;;;;;25.77;18.10;;;;;;;;;;3612353;39;20405;-74
2021/06/08 06:17:53;;;;;;;18.20;16.47;;;;;;;;;;3605039;39;20474;-74
2021/06/08 06:20:20;;;;;;;18.90;17.10;;;;;;;;;;3615583;39;20709;-74
2021/06/08 06:22:46;;;;;;;18.40;16.10;;;;;;;;;;3618923;39;21070;-74
2021/06/08 06:25:13;;;;;;;20.67;17.77;;;;;;;;;;3609087;39;21308;-73
2021/06/08 06:27:41;;;;;;;26.30;17.60;;;;;;;;;;3613570;39;20398;-73
2021/06/08 06:30:08;;;;;;;20.63;16.63;;;;;;;;;;3620031;39;20424;-74
2021/06/08 06:32:34;;;;;;;17.87;16.23;;;;;;;;;;3611305;39;20389;-74
2021/06/08 06:35:01;;;;;;;20.73;18.53;;;;;;;;;;3599960;39;20930;-73
2021/06/08 06:37:27;;;;;;;20.17;18.07;;;;;;;;;;3618576;39;20404;-74
2021/06/08 06:39:54;;;;;;;19.77;17.70;;;;;;;;;;3603295;39;20425;-73
2021/06/08 06:42:23;;;;;;;19.67;17.87;;;;;;;;;;3598272;39;20440;-73
2021/06/08 06:44:51;;;;;;;20.40;18.27;;;;;;;;;;3608683;39;20414;-74
2021/06/08 06:47:18;;;;;;;18.63;16.70;;;;;;;;;;3620834;39;20409;-73
2021/06/08 06:49:44;;;;;;;19.53;17.53;;;;;;;;;;3611660;39;20460;-73
2021/06/08 06:52:11;;;;;;;18.67;16.77;;;;;;;;;;3619214;39;20406;-74
2021/06/08 06:54:37;;;;;;;23.20;17.70;;;;;;;;;;3608657;39;20421;-73
2021/06/08 06:57:04;;;;;;;19.80;17.97;;;;;;;;;;3610803;39;20562;-74
2021/06/08 06:59:30;;;;;;;17.60;15.20;;;;;;;;;;3608398;39;20421;-73
2021/06/08 07:01:57;;;;;;;19.33;17.53;;;;;;;;;;3608575;39;20405;-73
2021/06/08 07:04:24;;;;;;;19.63;16.83;;;;;;;;;;3608974;39;20427;-74
2021/06/08 07:06:51;;;;;;;21.67;17.67;;;;;;;;;;3605855;39;20418;-74
2021/06/08 07:09:23;;;;;;;18.47;16.53;;;;;;;;;;3607939;39;20714;-74
2021/06/08 07:11:50;;;;;;;18.20;16.30;;;;;;;;;;3612621;39;20420;-73
2021/06/08 07:14:16;;;;;;;18.97;17.17;;;;;;;;;;3619098;39;20811;-74
2021/06/08 07:16:42;;;;;;;16.77;15.07;;;;;;;;;;3608325;39;20402;-73
2021/06/08 07:19:09;;;;;;;18.77;16.90;;;;;;;;;;3608984;39;20937;-73
2021/06/08 07:21:35;;;;;;;19.33;16.10;;;;;;;;;;3613110;39;20402;-74
2021/06/08 07:24:01;;;;;;;17.63;15.77;;;;;;;;;;3610151;39;20417;-74
2021/06/08 07:26:29;;;;;;;16.27;14.77;;;;;;;;;;3605678;39;20530;-73
2021/06/08 07:28:55;;;;;;;15.90;14.37;;;;;;;;;;3609700;39;20401;-73
2021/06/08 07:31:32;;;;;;;17.47;15.17;;;;;;;;;;3595973;39;20393;-73
2021/06/08 07:34:03;;;;;;;17.23;15.63;;;;;;;;;;3609048;39;20685;-74
2021/06/08 07:36:37;;;;;;;17.57;14.57;;;;;;;;;;3601909;39;20759;-74
2021/06/08 07:39:22;;;;;;;17.70;15.73;;;;;;;;;;3611135;39;20489;-73
2021/06/08 07:41:52;;;;;;;14.47;13.07;;;;;;;;;;3608360;39;20450;-73
2021/06/08 07:44:28;;;;;;;15.80;14.23;;;;;;;;;;3616071;39;20426;-74
2021/06/08 07:46:58;;;;;;;17.50;14.30;;;;;;;;;;3608415;39;20409;-74
2021/06/08 07:49:25;;;;;;;17.57;16.00;;;;;;;;;;3614091;39;20529;-74
2021/06/08 07:51:52;;;;;;;18.17;16.33;;;;;;;;;;3609762;39;20438;-74
2021/06/08 07:54:21;;;;;;;18.37;16.63;;;;;;;;;;3597795;39;21220;-74
2021/06/08 07:56:48;;;;;;;18.83;17.03;;;;;;;;;;3615587;39;20433;-74
2021/06/08 07:59:16;;;;;;;18.40;16.53;;;;;;;;;;3615267;39;20524;-74
2021/06/08 08:01:46;;;;;;;16.90;15.40;;;;;;;;;;3593714;39;20402;-75
2021/06/08 08:04:18;;;;;;;17.73;16.10;;;;;;;;;;3608738;39;20421;-73
2021/06/08 08:06:45;;;;;;;20.80;16.37;;;;;;;;;;3609735;39;20445;-72
2021/06/08 08:09:15;;;;;;;19.33;17.50;;;;;;;;;;3608957;39;20599;-73
2021/06/08 08:11:43;;;;;;;20.20;18.20;;;;;;;;;;3610981;39;20401;-74
2021/06/08 08:14:11;;;;;;;19.70;17.67;;;;;;;;;;3604166;39;20565;-73
2021/06/08 08:16:39;;;;;;;18.17;16.50;;;;;;;;;;3618362;39;20401;-73
2021/06/08 08:19:06;;;;;;;18.43;16.57;;;;;;;;;;3601751;39;20806;-75
2021/06/08 08:21:32;;;;;;;16.93;15.40;;;;;;;;;;3600246;39;20486;-74
2021/06/08 08:23:58;;;;;;;18.60;16.70;;;;;;;;;;3593501;39;21583;-73
2021/06/08 08:26:24;;;;;;;19.13;17.57;;;;;;;;;;3592657;39;20663;-73
2021/06/08 08:28:58;;;;;;;19.87;18.27;;;;;;;;;;3602162;39;20417;-73
2021/06/08 08:31:27;;;;;;;20.27;18.57;;;;;;;;;;3591746;39;20401;-74
2021/06/08 08:33:54;;;;;;;18.50;16.77;;;;;;;;;;3602429;39;20694;-74
2021/06/08 08:36:20;;;;;;;20.40;18.53;;;;;;;;;;3613486;39;20413;-73
2021/06/08 08:38:47;;;;;;;19.20;17.50;;;;;;;;;;3619929;39;20857;-74
2021/06/08 08:41:16;;;;;;;19.03;17.23;;;;;;;;;;3612478;39;20426;-74
2021/06/08 08:43:44;;;;;;;20.10;18.47;;;;;;;;;;3605191;39;20405;-74
2021/06/08 08:46:11;;;;;;;19.47;17.97;;;;;;;;;;3616178;39;20456;-74
2021/06/08 08:48:39;;;;;;;16.97;15.57;;;;;;;;;;3606078;39;20520;-74
2021/06/08 08:51:06;;;;;;;17.40;16.00;;;;;;;;;;3616916;39;20506;-73
2021/06/08 08:53:33;;;;;;;16.33;15.13;;;;;;;;;;3619561;39;20863;-74
2021/06/08 08:55:59;;;;;;;17.97;16.47;;;;;;;;;;3621237;39;20397;-74
2021/06/08 08:58:27;;;;;;;18.77;17.07;;;;;;;;;;3610665;39;20412;-74
2021/06/08 09:00:55;;;;;;;17.97;15.70;;;;;;;;;;3610467;39;20400;-74
2021/06/08 09:03:22;;;;;;;18.20;16.37;;;;;;;;;;3622296;39;20412;-74
2021/06/08 09:05:48;;;;;;;17.43;16.10;;;;;;;;;;3623032;39;20872;-74
2021/06/08 09:08:14;;;;;;;20.30;18.40;;;;;;;;;;3622630;39;20901;-74
2021/06/08 09:10:42;;;;;;;14.70;13.40;;;;;;;;;;3603233;39;20535;-74
2021/06/08 09:13:09;;;;;;;14.83;13.23;;;;;;;;;;3609286;39;20579;-74
2021/06/08 09:15:36;;;;;;;14.70;13.10;;;;;;;;;;3608652;39;20834;-75
2021/06/08 09:18:02;;;;;;;13.93;12.73;;;;;;;;;;3609186;39;20409;-75
2021/06/08 09:20:29;;;;;;;14.87;13.20;;;;;;;;;;3606968;39;20408;-75
2021/06/08 09:23:03;;;;;;;13.90;12.63;;;;;;;;;;3605550;39;23194;-75
2021/06/08 09:25:36;;;;;;;13.57;12.23;;;;;;;;;;3619727;39;20405;-74
2021/06/08 09:28:25;;;;;;;12.93;11.47;;;;;;;;;;3612673;39;20413;-75
2021/06/08 09:31:10;;;;;;;11.47;10.57;;;;;;;;;;3605753;39;20397;-75
2021/06/08 09:33:38;;;;;;;9.70;8.90;;;;;;;;;;3622111;39;20505;-75
2021/06/08 09:36:09;;;;;;;9.37;8.50;;;;;;;;;;3623557;39;20401;-75
2021/06/08 09:38:38;;;;;;;14.10;13.00;;;;;;;;;;3614224;39;20460;-75
2021/06/08 09:41:21;;;;;;;13.37;12.30;;;;;;;;;;3623973;39;20393;-75
2021/06/08 09:44:07;;;;;;;13.07;12.10;;;;;;;;;;3620707;39;20458;-75
2021/06/08 09:46:53;;;;;;;12.63;11.63;;;;;;;;;;3605220;39;20412;-75
2021/06/08 09:49:20;;;;;;;11.97;11.17;;;;;;;;;;3621473;39;20401;-75
2021/06/08 09:51:49;;;;;;;12.43;10.73;;;;;;;;;;3622505;39;20786;-75
2021/06/08 09:54:28;;;;;;;10.60;9.90;;;;;;;;;;3612022;39;20517;-75
2021/06/08 09:57:14;;;;;;;11.20;10.20;;;;;;;;;;3623119;39;20405;-75
2021/06/08 09:59:41;;;;;;;10.83;9.97;;;;;;;;;;3622866;39;20817;-75
2021/06/08 10:02:50;;;;;;;10.30;9.53;;;;;;;;;;3622728;39;20432;-75
2021/06/08 10:05:29;;;;;;;11.23;10.13;;;;;;;;;;3605086;39;20468;-75
2021/06/08 10:08:01;;;;;;;11.67;10.13;;;;;;;;;;3622978;39;20428;-75
2021/06/08 10:10:35;;;;;;;10.23;9.53;;;;;;;;;;3613355;39;20826;-75
2021/06/08 10:13:07;;;;;;;12.30;11.10;;;;;;;;;;3605290;39;20403;-75
2021/06/08 10:15:35;;;;;;;13.10;12.20;;;;;;;;;;3621765;39;20490;-75
2021/06/08 10:18:01;;;;;;;12.50;11.50;;;;;;;;;;3623423;39;20549;-76
2021/06/08 10:20:29;;;;;;;9.23;8.53;;;;;;;;;;3612013;39;20493;-75
2021/06/08 10:22:56;;;;;;;9.70;9.07;;;;;;;;;;3621792;39;20428;-76
2021/06/08 10:25:22;;;;;;;9.20;8.40;;;;;;;;;;3623387;39;20401;-75
2021/06/08 10:27:48;;;;;;;9.80;8.90;;;;;;;;;;3614029;39;20484;-75
2021/06/08 10:30:15;;;;;;;7.97;7.27;;;;;;;;;;3622911;39;20825;-74
2021/06/08 10:32:42;;;;;;;7.80;7.27;;;;;;;;;;3601352;39;20401;-75
2021/06/08 10:35:09;;;;;;;9.83;8.93;;;;;;;;;;3622432;39;20469;-75
2021/06/08 10:37:37;;;;;;;10.30;9.50;;;;;;;;;;3609830;39;20412;-75
2021/06/08 10:40:04;;;;;;;10.63;9.93;;;;;;;;;;3621074;39;20412;-74
2021/06/08 10:42:31;;;;;;;10.00;9.30;;;;;;;;;;3621627;39;20437;-74
2021/06/08 10:45:07;;;;;;;9.40;8.73;;;;;;;;;;3608412;39;20393;-75
2021/06/08 10:47:39;;;;;;;10.50;9.60;;;;;;;;;;3622156;39;20417;-74
2021/06/08 10:50:24;;;;;;;12.07;10.77;;;;;;;;;;3620304;39;20488;-74
2021/06/08 10:52:51;;;;;;;12.00;11.20;;;;;;;;;;3605247;39;20421;-74
2021/06/08 10:55:20;;;;;;;10.30;9.60;;;;;;;;;;3621112;39;20423;-74
2021/06/08 10:57:46;;;;;;;9.87;9.07;;;;;;;;;;3621052;39;20858;-75
2021/06/08 11:00:25;;;;;;;11.60;10.70;;;;;;;;;;3611312;39;20426;-75
2021/06/08 11:03:00;;;;;;;10.73;9.93;;;;;;;;;;3610202;39;20434;-74
2021/06/08 11:05:45;;;;;;;11.87;10.87;;;;;;;;;;3621635;39;20547;-74
2021/06/08 11:08:11;;;;;;;11.60;10.87;;;;;;;;;;3612268;39;20500;-75
2021/06/08 11:10:45;;;;;;;10.40;9.50;;;;;;;;;;3621505;39;20970;-75
2021/06/08 11:13:12;;;;;;;12.20;10.90;;;;;;;;;;3617759;39;20390;-75
2021/06/08 11:15:43;;;;;;;12.87;11.87;;;;;;;;;;3609134;39;20773;-75
2021/06/08 11:18:18;;;;;;;12.70;11.90;;;;;;;;;;3608373;39;20457;-75
2021/06/08 11:21:04;;;;;;;13.93;12.93;;;;;;;;;;3607576;39;20424;-75
2021/06/08 11:23:32;;;;;;;13.40;12.40;;;;;;;;;;3592109;39;20446;-75
2021/06/08 11:25:58;;;;;;;14.70;13.60;;;;;;;;;;3590063;39;20434;-75
2021/06/08 11:28:39;;;;;;;13.13;12.20;;;;;;;;;;3590202;39;20439;-75
2021/06/08 11:31:05;;;;;;;11.30;10.50;;;;;;;;;;3592481;39;20465;-75
2021/06/08 11:33:34;;;;;;;13.80;12.60;;;;;;;;;;3592342;39;20415;-75
2021/06/08 11:36:23;;;;;;;14.40;13.30;;;;;;;;;;3594111;39;20475;-75
2021/06/08 11:38:49;;;;;;;13.87;12.97;;;;;;;;;;3591106;39;20408;-74
2021/06/08 11:41:17;;;;;;;14.10;12.90;;;;;;;;;;3588360;39;20687;-75
2021/06/08 11:43:45;;;;;;;13.47;12.47;;;;;;;;;;3585827;39;20427;-74
2021/06/08 11:46:16;;;;;;;13.00;12.20;;;;;;;;;;3590638;39;20410;-77
2021/06/08 11:48:44;;;;;;;13.10;12.10;;;;;;;;;;3570126;39;20455;-75
2021/06/08 11:51:16;;;;;;;10.83;10.03;;;;;;;;;;3590682;39;20407;-76
2021/06/08 11:54:00;;;;;;;12.23;11.33;;;;;;;;;;3590467;39;20391;-76
2021/06/08 11:56:43;;;;;;;12.80;12.00;;;;;;;;;;3590845;39;20510;-75
2021/06/08 11:59:09;;;;;;;14.97;13.97;;;;;;;;;;3592196;39;20474;-75
2021/06/08 12:01:36;;;;;;;13.90;12.90;;;;;;;;;;3615556;39;20404;-75
2021/06/08 12:04:02;;;;;;;13.90;12.80;;;;;;;;;;3600461;39;20669;-75
2021/06/08 12:06:47;;;;;;;14.23;13.13;;;;;;;;;;3612588;39;22007;-76
2021/06/08 12:09:17;;;;;;;12.63;11.73;;;;;;;;;;3609206;39;20418;-76
2021/06/08 12:11:43;;;;;;;13.57;12.67;;;;;;;;;;3619241;39;20430;-75
2021/06/08 12:14:09;;;;;;;11.83;11.03;;;;;;;;;;3600857;39;20919;-74
2021/06/08 12:16:35;;;;;;;14.40;13.50;;;;;;;;;;3601364;39;20406;-75
2021/06/08 12:19:07;;;;;;;13.33;12.17;;;;;;;;;;3611571;39;20425;-74
2021/06/08 12:21:34;;;;;;;13.13;12.03;;;;;;;;;;3605357;39;20421;-75
2021/06/08 12:24:00;;;;;;;15.33;14.33;;;;;;;;;;3612697;39;20433;-75
2021/06/08 12:26:26;;;;;;;14.97;13.83;;;;;;;;;;3607425;39;20463;-75
2021/06/08 12:29:07;;;;;;;14.60;13.60;;;;;;;;;;3610716;39;20532;-74
2021/06/08 12:31:34;;;;;;;11.73;10.73;;;;;;;;;;3615870;39;20405;-74
2021/06/08 12:34:00;;;;;;;12.83;11.83;;;;;;;;;;3609674;39;20803;-74
2021/06/08 12:36:26;;;;;;;11.63;10.73;;;;;;;;;;3606436;39;20409;-74
2021/06/08 12:38:54;;;;;;;10.70;9.80;;;;;;;;;;3612017;39;20409;-74
2021/06/08 12:41:25;;;;;;;9.60;8.70;;;;;;;;;;3613906;39;21239;-75
2021/06/08 12:43:55;;;;;;;9.13;8.40;;;;;;;;;;3607954;39;20920;-74
2021/06/08 12:46:25;;;;;;;11.43;10.00;;;;;;;;;;3607451;39;21127;-75
2021/06/08 12:49:10;;;;;;;13.17;12.23;;;;;;;;;;3611557;39;20410;-75
2021/06/08 12:51:36;;;;;;;11.43;10.73;;;;;;;;;;3611010;39;20425;-75
2021/06/08 12:54:03;;;;;;;11.07;10.27;;;;;;;;;;3614322;39;23004;-75
2021/06/08 12:56:29;;;;;;;11.20;10.30;;;;;;;;;;3609331;39;20441;-76
2021/06/08 12:58:56;;;;;;;11.37;10.60;;;;;;;;;;3609966;39;20445;-76
2021/06/08 13:01:23;;;;;;;11.90;11.00;;;;;;;;;;3601422;39;20410;-75
2021/06/08 13:03:49;;;;;;;11.53;10.73;;;;;;;;;;3612242;39;20401;-76
2021/06/08 13:06:19;;;;;;;14.57;13.40;;;;;;;;;;3609644;39;20450;-76
2021/06/08 13:08:45;;;;;;;11.53;10.73;;;;;;;;;;3610178;39;20914;-75
2021/06/08 13:11:22;;;;;;;10.70;9.90;;;;;;;;;;3608686;39;20410;-75
2021/06/08 13:13:48;;;;;;;11.17;10.17;;;;;;;;;;3602779;39;20406;-75
2021/06/08 13:16:29;;;;;;;10.63;9.83;;;;;;;;;;3607225;39;20417;-75
2021/06/08 13:18:56;;;;;;;12.07;10.97;;;;;;;;;;3612062;39;20810;-75
2021/06/08 13:21:32;;;;;;;11.50;10.30;;;;;;;;;;3608310;39;20444;-75
2021/06/08 13:24:11;;;;;;;13.30;12.10;;;;;;;;;;3604802;39;20461;-75
2021/06/08 13:26:37;;;;;;;14.13;11.10;;;;;;;;;;3608121;39;20413;-75
2021/06/08 13:29:18;;;;;;;12.73;11.80;;;;;;;;;;3613367;39;20402;-75
2021/06/08 13:31:45;;;;;;;12.93;12.10;;;;;;;;;;3619132;39;20826;-75
2021/06/08 13:34:23;;;;;;;12.30;11.50;;;;;;;;;;3610954;39;20386;-76
2021/06/08 13:36:50;;;;;;;9.77;8.90;;;;;;;;;;3618420;39;20410;-75
2021/06/08 13:39:20;;;;;;;12.93;11.90;;;;;;;;;;3608437;39;20433;-75
2021/06/08 13:41:48;;;;;;;12.30;11.30;;;;;;;;;;3609619;39;20462;-76
2021/06/08 13:44:14;;;;;;;12.20;11.30;;;;;;;;;;3609952;39;20565;-75
2021/06/08 13:46:53;;;;;;;11.70;10.90;;;;;;;;;;3606680;39;20774;-75
2021/06/08 13:49:19;;;;;;;11.57;10.67;;;;;;;;;;3610771;39;20406;-75
2021/06/08 13:51:54;;;;;;;16.93;15.50;;;;;;;;;;3603653;39;20429;-75
2021/06/08 13:54:21;;;;;;;15.43;14.23;;;;;;;;;;3617641;39;20418;-75
2021/06/08 13:57:02;;;;;;;11.43;10.40;;;;;;;;;;3610588;39;20449;-75
2021/06/08 14:02:39;;;;;;;11.03;10.13;;;;;;;;;;3612131;39;20530;-75
2021/06/08 14:05:06;;;;;;;11.73;10.80;;;;;;;;;;3608852;39;20417;-75
2021/06/08 14:07:32;;;;;;;13.33;12.33;;;;;;;;;;3616192;39;20529;-75
2021/06/08 14:10:05;;;;;;;13.80;12.80;;;;;;;;;;3605987;39;20574;-75
2021/06/08 14:12:32;;;;;;;12.33;11.40;;;;;;;;;;3610031;39;20696;-75
2021/06/08 14:15:06;;;;;;;13.07;11.80;;;;;;;;;;3605849;39;20389;-75
2021/06/08 14:17:32;;;;;;;10.50;9.70;;;;;;;;;;3609497;39;20412;-76
2021/06/08 14:19:58;;;;;;;9.60;8.80;;;;;;;;;;3609238;39;20402;-75
2021/06/08 14:22:24;;;;;;;8.30;7.70;;;;;;;;;;3607343;39;21221;-75
2021/06/08 14:24:50;;;;;;;9.60;8.80;;;;;;;;;;3611541;39;20458;-75
2021/06/08 14:27:18;;;;;;;9.50;8.80;;;;;;;;;;3611331;39;20507;-75
2021/06/08 14:29:46;;;;;;;10.73;10.00;;;;;;;;;;3605485;39;20530;-75
2021/06/08 14:32:12;;;;;;;11.93;10.93;;;;;;;;;;3611178;39;20499;-75